createdAt,value
2022-11-15T00:07:01.792Z,30.85
2022-11-15T00:25:43.275Z,30.63
2022-11-15T00:34:11.540Z,30.38
2022-11-15T00:43:09.266Z,30.05
2022-11-15T00:51:12.237Z,29.68
2022-11-15T01:00:29.910Z,29.54
2022-11-15T01:08:27.416Z,29.31
2022-11-15T01:12:17.171Z,29.38
2022-11-15T01:16:52.354Z,29.42
2022-11-15T01:20:41.895Z,29.32
2022-11-15T01:24:02.843Z,29.16
2022-11-15T01:27:46.302Z,30.23
2022-11-15T01:31:38.502Z,29.56
2022-11-15T01:40:47.484Z,29.23
2022-11-15T01:44:38.481Z,29.03
2022-11-15T01:48:28.004Z,28.98
2022-11-15T01:51:49.170Z,28.77
2022-11-15T01:55:20.901Z,28.73
2022-11-15T01:59:00.430Z,28.69
2022-11-15T02:06:49.663Z,28.81
2022-11-15T02:20:49.543Z,28.74
2022-11-15T02:24:32.848Z,29.16
2022-11-15T02:28:17.032Z,28.97
2022-11-15T02:32:12.536Z,28.70
2022-11-15T02:35:59.896Z,28.31
2022-11-15T02:39:52.381Z,28.28
2022-11-15T02:43:42.021Z,28.30
2022-11-15T02:47:35.762Z,28.32
2022-11-15T02:51:04.193Z,28.22
2022-11-15T02:54:52.869Z,28.16
2022-11-15T02:58:37.285Z,28.30
2022-11-15T03:02:17.497Z,28.23
2022-11-15T03:06:14.934Z,28.30
2022-11-15T03:10:19.166Z,28.22
2022-11-15T03:14:38.015Z,28.20
2022-11-15T03:18:27.103Z,28.09
2022-11-15T03:22:22.851Z,28.07
2022-11-15T03:25:58.745Z,28.04
2022-11-15T03:29:48.410Z,28.13
2022-11-15T03:37:08.069Z,27.95
2022-11-15T03:40:30.991Z,27.88
2022-11-15T03:43:58.818Z,27.86
2022-11-15T03:47:22.880Z,27.75
2022-11-15T03:55:32.358Z,27.76
2022-11-15T03:59:14.979Z,27.71
2022-11-15T04:02:36.899Z,27.72
2022-11-15T04:06:05.723Z,27.66
2022-11-15T04:09:36.121Z,27.62
2022-11-15T04:13:00.314Z,27.56
2022-11-15T04:16:33.810Z,27.59
2022-11-15T04:20:16.994Z,27.53
2022-11-15T04:27:28.354Z,27.60
2022-11-15T04:30:46.215Z,27.54
2022-11-15T04:34:31.411Z,27.48
2022-11-15T04:37:49.128Z,27.45
2022-11-15T04:41:13.307Z,27.38
2022-11-15T04:44:45.050Z,27.39
2022-11-15T04:48:05.254Z,27.32
2022-11-15T04:51:31.335Z,27.36
2022-11-15T04:55:07.747Z,27.37
2022-11-15T04:58:44.985Z,27.31
2022-11-15T05:03:18.500Z,27.35
2022-11-15T05:06:48.809Z,27.27
2022-11-15T05:10:05.643Z,27.18
2022-11-15T05:13:18.727Z,27.20
2022-11-15T05:16:56.200Z,27.23
2022-11-15T05:20:23.968Z,27.40
2022-11-15T05:23:43.830Z,27.44
2022-11-15T05:27:02.001Z,27.41
2022-11-15T05:37:29.227Z,27.09
2022-11-15T05:40:58.671Z,27.02
2022-11-15T05:58:48.014Z,26.95
2022-11-15T06:02:04.769Z,26.99
2022-11-15T06:06:30.111Z,27.22
2022-11-15T06:09:42.664Z,27.22
2022-11-15T06:13:02.211Z,27.17
2022-11-15T06:16:16.972Z,26.84
2022-11-15T06:19:47.598Z,27.02
2022-11-15T06:22:57.149Z,26.99
2022-11-15T06:27:55.938Z,27.13
2022-11-15T06:31:04.508Z,27.19
2022-11-15T06:33:55.351Z,27.05
2022-11-15T06:36:47.320Z,26.92
2022-11-15T06:39:37.002Z,26.96
2022-11-15T06:42:28.889Z,26.90
2022-11-15T06:45:25.080Z,26.93
2022-11-15T06:48:17.387Z,26.91
2022-11-15T06:51:10.824Z,26.71
2022-11-15T06:54:03.445Z,26.59
2022-11-15T06:56:54.782Z,26.71
2022-11-15T06:59:44.224Z,26.77
2022-11-15T07:02:35.433Z,26.85
2022-11-15T07:05:29.330Z,26.70
2022-11-15T07:08:21.006Z,26.77
2022-11-15T07:11:11.245Z,26.73
2022-11-15T07:14:04.166Z,26.63
2022-11-15T07:17:05.548Z,26.77
2022-11-15T07:19:59.890Z,27.64
2022-11-15T07:22:49.674Z,27.16
2022-11-15T07:25:40.813Z,26.93
2022-11-15T07:28:35.409Z,26.62
2022-11-15T07:31:33.033Z,26.75
2022-11-15T07:34:22.997Z,26.83
2022-11-15T07:37:13.386Z,26.60
2022-11-15T07:40:05.852Z,26.55
2022-11-15T07:43:03.540Z,26.52
2022-11-15T07:45:59.123Z,26.54
2022-11-15T07:48:48.758Z,26.64
2022-11-15T07:51:36.802Z,26.57
2022-11-15T07:54:32.992Z,26.54
2022-11-15T07:57:24.666Z,26.54
2022-11-15T08:00:13.718Z,26.47
2022-11-15T08:03:13.939Z,26.44
2022-11-15T08:06:03.409Z,26.51
2022-11-15T08:08:57.501Z,26.47
2022-11-15T08:11:48.882Z,26.91
2022-11-15T08:14:40.631Z,26.57
2022-11-15T08:17:35.255Z,26.52
2022-11-15T08:20:24.302Z,26.59
2022-11-15T08:23:20.103Z,26.48
2022-11-15T08:26:19.969Z,26.44
2022-11-15T08:29:12.192Z,26.43
2022-11-15T08:32:06.587Z,26.45
2022-11-15T08:34:59.829Z,26.45
2022-11-15T08:37:50.060Z,26.38
2022-11-15T08:40:44.567Z,26.27
2022-11-15T08:43:48.286Z,26.26
2022-11-15T08:46:41.245Z,26.21
2022-11-15T08:49:33.770Z,26.21
2022-11-15T08:52:30.532Z,26.27
2022-11-15T08:55:24.851Z,26.29
2022-11-15T08:58:20.367Z,26.35
2022-11-15T09:01:18.645Z,26.38
2022-11-15T09:04:09.040Z,26.48
2022-11-15T09:07:03.996Z,26.47
2022-11-15T09:09:55.848Z,26.70
2022-11-15T09:12:47.223Z,26.79
2022-11-15T09:15:38.364Z,26.79
2022-11-15T09:18:36.454Z,26.77
2022-11-15T09:21:28.702Z,26.83
2022-11-15T09:24:18.922Z,26.81
2022-11-15T09:27:08.251Z,26.85
2022-11-15T09:30:12.055Z,27.45
2022-11-15T09:33:04.621Z,27.97
2022-11-15T09:35:56.081Z,27.19
2022-11-15T09:38:52.893Z,27.03
2022-11-15T09:42:12.284Z,27.06
2022-11-15T09:45:35.447Z,27.04
2022-11-15T09:49:08.274Z,27.11
2022-11-15T09:52:05.030Z,26.95
2022-11-15T09:54:56.533Z,26.75
2022-11-15T09:57:43.455Z,27.02
2022-11-15T10:00:52.307Z,26.83
2022-11-15T10:03:40.944Z,26.77
2022-11-15T10:06:46.976Z,26.78
2022-11-15T10:09:48.219Z,26.66
2022-11-15T10:12:23.123Z,26.66
2022-11-15T10:15:06.895Z,26.65
2022-11-15T10:18:19.155Z,26.75
2022-11-15T10:21:08.471Z,26.56
2022-11-15T10:23:42.922Z,26.44
2022-11-15T10:26:20.590Z,26.36
2022-11-15T10:29:01.272Z,26.40
2022-11-15T10:31:34.991Z,26.38
2022-11-15T10:34:20.093Z,26.33
2022-11-15T10:37:04.855Z,26.39
2022-11-15T10:39:39.312Z,26.37
2022-11-15T10:42:40.592Z,26.45
2022-11-15T10:45:48.824Z,26.65
2022-11-15T10:48:33.034Z,26.59
2022-11-15T10:55:43.555Z,26.75
2022-11-15T10:58:52.331Z,26.87
2022-11-15T11:01:49.065Z,26.91
2022-11-15T11:04:24.626Z,26.74
2022-11-15T11:07:22.701Z,26.67
2022-11-15T11:10:02.169Z,26.41
2022-11-15T11:12:37.879Z,26.24
2022-11-15T11:15:15.183Z,26.18
2022-11-15T11:18:01.432Z,26.24
2022-11-15T11:20:53.497Z,26.19
2022-11-15T11:23:41.683Z,26.22
2022-11-15T11:26:19.096Z,26.23
2022-11-15T11:29:07.025Z,26.19
2022-11-15T11:31:52.529Z,26.36
2022-11-15T11:34:21.888Z,27.04
2022-11-15T11:37:23.894Z,26.58
2022-11-15T11:40:16.472Z,26.35
2022-11-15T11:43:06.895Z,26.33
2022-11-15T11:45:42.265Z,26.32
2022-11-15T11:48:44.945Z,26.31
2022-11-15T11:51:39.723Z,26.40
2022-11-15T11:59:41.446Z,26.69
2022-11-15T12:02:44.509Z,26.71
2022-11-15T12:05:33.315Z,26.66
2022-11-15T12:08:32.807Z,26.62
2022-11-15T12:11:32.434Z,26.54
2022-11-15T12:14:10.855Z,26.55
2022-11-15T12:16:45.856Z,26.53
2022-11-15T12:19:18.850Z,26.53
2022-11-15T12:22:10.113Z,26.61
2022-11-15T12:24:46.870Z,26.83
2022-11-15T12:27:44.839Z,26.93
2022-11-15T12:30:19.470Z,26.91
2022-11-15T12:33:08.095Z,26.97
2022-11-15T12:35:44.787Z,27.02
2022-11-15T12:38:59.767Z,27.11
2022-11-15T12:41:43.056Z,27.10
2022-11-15T12:44:38.516Z,27.22
2022-11-15T12:47:11.029Z,27.13
2022-11-15T12:49:40.491Z,27.18
2022-11-15T12:52:13.110Z,27.22
2022-11-15T12:54:43.773Z,27.36
2022-11-15T12:57:19.753Z,27.35
2022-11-15T13:00:07.750Z,27.46
2022-11-15T13:02:51.520Z,27.59
2022-11-15T13:05:22.458Z,28.54
2022-11-15T13:08:09.350Z,27.89
2022-11-15T13:10:44.738Z,27.79
2022-11-15T13:13:54.230Z,28.00
2022-11-15T13:16:48.215Z,28.01
2022-11-15T13:19:28.260Z,27.99
2022-11-15T13:22:20.665Z,28.06
2022-11-15T13:24:52.366Z,28.13
2022-11-15T13:27:23.544Z,28.11
2022-11-15T13:29:55.156Z,28.21
2022-11-15T13:32:54.935Z,28.76
2022-11-15T13:35:36.563Z,28.57
2022-11-15T13:38:08.333Z,28.53
2022-11-15T13:40:40.857Z,28.44
2022-11-15T13:43:42.100Z,28.72
2022-11-15T13:46:28.589Z,28.67
2022-11-15T13:49:11.258Z,28.76
2022-11-15T13:51:44.946Z,28.71
2022-11-15T13:54:18.706Z,28.70
2022-11-15T13:57:29.108Z,28.92
2022-11-15T14:00:34.932Z,28.99
2022-11-15T14:03:24.337Z,29.02
2022-11-15T14:06:54.438Z,29.23
2022-11-15T14:10:05.042Z,29.37
2022-11-15T14:13:06.154Z,29.45
2022-11-15T14:15:42.929Z,29.51
2022-11-15T14:18:44.639Z,29.65
2022-11-15T14:21:16.540Z,29.67
2022-11-15T14:23:47.405Z,29.65
2022-11-15T14:26:36.462Z,29.85
2022-11-15T14:29:25.970Z,29.98
2022-11-15T14:32:21.670Z,30.15
2022-11-15T14:35:06.228Z,30.20
2022-11-15T14:37:36.752Z,30.24
2022-11-15T14:40:46.629Z,30.48
2022-11-15T14:43:16.611Z,30.36
2022-11-15T14:45:46.843Z,30.34
2022-11-15T14:48:16.479Z,30.34
2022-11-15T14:50:47.276Z,30.45
2022-11-15T14:53:19.102Z,30.51
2022-11-15T14:55:50.309Z,30.59
2022-11-15T14:58:23.268Z,30.64
2022-11-15T15:01:00.987Z,30.67
2022-11-15T15:03:34.014Z,30.73
2022-11-15T15:06:04.625Z,30.84
2022-11-15T15:08:37.605Z,30.81
2022-11-15T15:11:24.785Z,30.93
2022-11-15T15:14:40.529Z,31.08
2022-11-15T15:32:15.773Z,31.66
2022-11-15T15:39:50.493Z,31.98
2022-11-15T15:42:36.669Z,31.79
2022-11-15T15:53:48.694Z,31.73
2022-11-15T15:57:48.929Z,31.88
2022-11-15T16:04:08.803Z,31.79
2022-11-15T16:14:33.459Z,32.28
2022-11-15T16:31:49.236Z,32.19
2022-11-15T16:35:41.166Z,32.34
2022-11-15T16:48:33.289Z,32.25
2022-11-15T16:54:52.191Z,32.25
2022-11-15T16:57:35.262Z,32.11
2022-11-15T17:14:53.061Z,32.34
2022-11-15T17:18:12.524Z,32.21
2022-11-15T17:21:36.296Z,32.87
2022-11-15T17:49:39.433Z,33.36
2022-11-15T17:52:21.492Z,33.27
2022-11-15T17:55:36.847Z,33.40
2022-11-15T18:03:21.169Z,33.53
2022-11-15T18:07:01.149Z,33.18
2022-11-15T18:13:31.923Z,33.20
2022-11-15T18:29:21.174Z,33.07
2022-11-15T18:35:40.918Z,34.05
2022-11-15T18:38:11.527Z,33.83
2022-11-15T18:40:44.099Z,33.01
2022-11-15T18:43:15.282Z,32.93
2022-11-15T18:45:48.267Z,32.76
2022-11-15T18:48:17.054Z,32.74
2022-11-15T18:50:50.435Z,32.74
2022-11-15T18:53:48.020Z,32.91
2022-11-15T18:56:21.951Z,32.93
2022-11-15T18:59:02.575Z,32.89
2022-11-15T19:01:40.313Z,33.20
2022-11-15T19:04:48.750Z,33.20
2022-11-15T19:12:19.534Z,33.44
2022-11-15T19:19:16.539Z,33.32
2022-11-15T19:21:56.727Z,32.99
2022-11-15T19:24:36.494Z,32.87
2022-11-15T19:27:09.193Z,33.40
2022-11-15T19:29:43.840Z,33.40
2022-11-15T19:32:15.617Z,32.93
2022-11-15T19:34:47.762Z,33.31
2022-11-15T19:37:45.311Z,33.15
2022-11-15T19:40:19.042Z,33.13
2022-11-15T19:42:51.451Z,33.19
2022-11-15T19:45:24.684Z,32.80
2022-11-15T19:48:11.638Z,32.74
2022-11-15T19:50:43.126Z,32.89
2022-11-15T19:53:15.997Z,32.90
2022-11-15T19:56:02.669Z,33.04
2022-11-15T19:59:03.710Z,33.41
2022-11-15T20:02:13.497Z,33.73
2022-11-15T20:05:15.552Z,33.90
2022-11-15T20:07:52.140Z,33.75
2022-11-15T20:10:48.834Z,33.77
2022-11-15T20:13:24.478Z,33.14
2022-11-15T20:16:51.443Z,33.34
2022-11-15T20:33:08.734Z,33.19
2022-11-15T20:48:12.605Z,34.14
2022-11-15T20:50:46.821Z,34.09
2022-11-15T20:53:39.366Z,33.88
2022-11-15T20:56:19.508Z,33.11
2022-11-15T20:58:53.153Z,32.66
2022-11-15T21:01:33.127Z,32.49
2022-11-15T21:04:05.018Z,32.34
2022-11-15T21:06:36.499Z,32.26
2022-11-15T21:09:32.026Z,33.16
2022-11-15T21:12:17.037Z,33.40
2022-11-15T21:20:04.627Z,33.82
2022-11-15T21:27:08.674Z,33.90
2022-11-15T21:31:39.980Z,34.06
2022-11-15T21:34:31.280Z,33.12
2022-11-15T21:37:39.602Z,32.80
2022-11-15T21:40:23.510Z,32.60
2022-11-15T21:43:12.133Z,32.58
2022-11-15T21:54:11.255Z,33.54
2022-11-15T21:56:54.886Z,33.52
2022-11-15T22:00:21.350Z,33.71
2022-11-15T22:03:07.011Z,33.59
2022-11-15T22:09:07.937Z,32.91
2022-11-15T22:11:53.171Z,32.56
2022-11-15T22:14:52.515Z,32.10
2022-11-15T22:17:23.042Z,32.57
2022-11-15T22:20:17.059Z,31.96
2022-11-15T22:23:00.317Z,31.99
2022-11-15T22:29:07.329Z,32.16
2022-11-15T22:31:39.063Z,31.87
2022-11-15T22:34:11.493Z,31.75
2022-11-15T22:37:18.389Z,31.78
2022-11-15T22:39:40.767Z,31.85
2022-11-15T22:42:34.959Z,32.23
2022-11-15T22:45:07.771Z,32.72
2022-11-15T22:47:40.555Z,32.11
2022-11-15T22:50:21.315Z,32.23
2022-11-15T22:53:02.814Z,32.03
2022-11-15T22:55:36.717Z,32.11
2022-11-15T23:01:45.358Z,32.48
2022-11-15T23:04:23.406Z,32.27
2022-11-15T23:06:55.356Z,32.20
2022-11-15T23:09:35.716Z,32.11
2022-11-15T23:12:25.243Z,32.14
2022-11-15T23:15:04.810Z,32.02
2022-11-15T23:17:39.970Z,31.89
2022-11-15T23:20:41.467Z,31.94
2022-11-15T23:23:07.094Z,32.01
2022-11-15T23:25:37.187Z,31.92
2022-11-15T23:28:33.563Z,31.88
2022-11-15T23:31:31.530Z,31.97
2022-11-15T23:34:05.359Z,32.05
2022-11-15T23:36:44.432Z,31.97
2022-11-15T23:39:16.554Z,31.87
2022-11-15T23:41:55.552Z,31.77
2022-11-15T23:44:46.996Z,31.84
2022-11-15T23:47:32.996Z,31.75
2022-11-15T23:50:11.140Z,31.72
2022-11-15T23:53:11.110Z,32.41
2022-11-15T23:56:06.281Z,31.83
2022-11-15T23:58:39.672Z,31.78
